Time;durP1;ratioP1;P1;durP2;ratioP2;P2;SDS_P1;SDS_P2;PMS_P1;PMS_P2;Temp;Humidity;BMP_temperature;BMP_pressure;BME280_temperature;BME280_humidity;BME280_pressure;Samples;Min_cycle;Max_cycle;Signal;HPM_P1;HPM_P2
2022/11/20 00:01:13;;;;;;;;;5.50;4.75;;;;;10.95;100.00;101161.34;5090549;27;45370;-78
2022/11/20 00:03:38;;;;;;;;;3.33;3.33;;;;;10.94;100.00;101173.69;5096343;27;45502;-76
2022/11/20 00:06:06;;;;;;;;;8.00;7.50;;;;;10.90;100.00;101160.41;5080783;27;46787;-78
2022/11/20 00:08:32;;;;;;;;;6.75;4.00;;;;;10.88;100.00;101168.31;5079849;27;45460;-77
2022/11/20 00:11:02;;;;;;;;;10.00;7.50;;;;;10.89;100.00;101169.19;5081952;27;45339;-78
2022/11/20 00:13:28;;;;;;;;;4.00;4.00;;;;;10.85;100.00;101168.25;5079030;27;47450;-77
2022/11/20 00:16:00;;;;;;;;;7.00;4.75;;;;;10.84;100.00;101165.59;5088377;27;66554;-77
2022/11/20 00:18:26;;;;;;;;;5.67;5.33;;;;;10.80;100.00;101161.13;5079419;27;45460;-77
2022/11/20 00:20:52;;;;;;;;;5.00;5.00;;;;;10.78;100.00;101162.88;5096264;27;45679;-78
2022/11/20 00:23:17;;;;;;;;;9.67;5.33;;;;;10.74;100.00;101159.28;5091425;27;45612;-77
2022/11/20 00:25:43;;;;;;;;;6.00;6.00;;;;;10.72;100.00;101159.25;5095592;27;45334;-77
2022/11/20 00:28:08;;;;;;;;;12.50;7.00;;;;;10.68;100.00;101165.34;5096385;27;45441;-77
2022/11/20 00:33:08;;;;;;;;;5.50;5.50;;;;;10.62;100.00;101167.91;5104204;22;45167;-77
2022/11/20 00:35:34;;;;;;;;;6.75;4.50;;;;;10.60;100.00;101174.00;5083764;27;48291;-77
2022/11/20 00:37:59;;;;;;;;;7.00;7.00;;;;;10.59;100.00;101172.22;5080121;27;54231;-77
2022/11/20 00:40:24;;;;;;;;;5.25;5.25;;;;;10.57;100.00;101166.94;5092639;27;54265;-77
2022/11/20 00:42:50;;;;;;;;;7.25;5.50;;;;;10.57;100.00;101169.56;5059360;27;73127;-77
2022/11/20 00:45:15;;;;;;;;;11.25;4.25;;;;;10.53;100.00;101172.13;5093845;27;65811;-79
2022/11/20 00:47:40;;;;;;;;;6.00;6.00;;;;;10.51;100.00;101180.03;5095014;27;62449;-79
2022/11/20 00:50:06;;;;;;;;;7.00;6.75;;;;;10.48;100.00;101180.84;5095715;27;54311;-78
2022/11/20 00:52:31;;;;;;;;;6.50;4.00;;;;;10.47;100.00;101183.47;5095532;27;47219;-78
2022/11/20 00:54:57;;;;;;;;;4.00;4.00;;;;;10.45;100.00;101178.19;5089468;27;58822;-79
2022/11/20 00:57:22;;;;;;;;;4.00;4.00;;;;;10.45;100.00;101185.22;5068347;27;61813;-78
2022/11/20 00:59:47;;;;;;;;;7.50;4.00;;;;;10.40;100.00;101178.97;5092611;27;59071;-80
2022/11/20 01:02:13;;;;;;;;;10.50;5.00;;;;;10.38;100.00;101178.03;5092418;27;46303;-77
2022/11/20 01:04:38;;;;;;;;;5.25;4.00;;;;;10.33;100.00;101174.44;5075530;27;45461;-77
2022/11/20 01:07:03;;;;;;;;;2.33;2.33;;;;;10.31;100.00;101181.44;5095552;27;60451;-79
2022/11/20 01:09:29;;;;;;;;;4.00;3.00;;;;;10.27;100.00;101188.41;5097500;27;56570;-77
2022/11/20 01:11:54;;;;;;;;;4.00;4.00;;;;;10.27;100.00;101179.59;5098614;27;67830;-78
2022/11/20 01:14:20;;;;;;;;;4.50;3.50;;;;;10.22;100.00;101184.75;5078304;27;45353;-79
2022/11/20 01:16:50;;;;;;;;;2.25;2.00;;;;;10.20;100.00;101189.13;5081530;27;45221;-79
2022/11/20 01:19:21;;;;;;;;;3.00;3.00;;;;;10.15;100.00;101185.53;5091492;27;45687;-77
2022/11/20 01:21:49;;;;;;;;;11.75;3.00;;;;;10.12;100.00;101188.09;5096671;27;46430;-78
2022/11/20 01:24:16;;;;;;;;;6.00;3.75;;;;;10.06;100.00;101180.06;5096546;27;45521;-79
2022/11/20 01:26:43;;;;;;;;;3.00;2.00;;;;;10.05;100.00;101186.22;5079048;27;45534;-77
2022/11/20 01:29:22;;;;;;;;;4.50;1.75;;;;;10.00;100.00;101175.56;5097434;27;45507;-81
2022/11/20 01:31:48;;;;;;;;;2.00;2.00;;;;;9.93;100.00;101171.03;5096987;27;45472;-81
2022/11/20 01:34:17;;;;;;;;;3.00;3.00;;;;;9.93;100.00;101181.59;5099586;27;45335;-79
2022/11/20 01:36:43;;;;;;;;;4.50;2.00;;;;;9.91;100.00;101171.03;5099143;27;45441;-84
2022/11/20 01:39:15;;;;;;;;;4.25;2.00;;;;;9.90;100.00;101163.06;5079944;27;45611;-82
2022/11/20 01:45:00;;;;;;;;;2.00;2.00;;;;;9.88;100.00;101170.06;5078467;27;45316;-83
2022/11/20 01:47:33;;;;;;;;;6.75;3.00;;;;;9.84;100.00;101169.09;5063929;27;45650;-82
2022/11/20 01:50:05;;;;;;;;;2.00;2.00;;;;;9.82;100.00;101177.88;5099187;27;45453;-82
2022/11/20 01:52:37;;;;;;;;;5.00;2.25;;;;;9.78;100.00;101166.34;5097723;27;47650;-80
2022/11/20 01:55:19;;;;;;;;;3.00;3.00;;;;;9.77;100.00;101167.22;5098921;27;45471;-85
2022/11/20 01:57:45;;;;;;;;;1.00;1.00;;;;;9.77;100.00;101163.69;5095868;27;45437;-81
2022/11/20 02:00:13;;;;;;;;;4.00;1.00;;;;;9.78;100.00;101168.09;5084749;27;45694;-80
2022/11/20 02:02:43;;;;;;;;;5.75;3.00;;;;;9.78;100.00;101169.00;5098439;27;46749;-80
2022/11/20 02:05:21;;;;;;;;;2.00;1.00;;;;;9.80;100.00;101169.00;5097688;27;45320;-81
2022/11/20 02:07:47;;;;;;;;;1.00;1.00;;;;;9.81;100.00;101152.34;5080661;27;45482;-83
2022/11/20 02:10:13;;;;;;;;;3.00;2.00;;;;;9.84;100.00;101161.19;5080285;27;56887;-80
2022/11/20 02:15:22;;;;;;;;;3.00;2.00;;;;;9.87;100.00;101157.75;5089828;27;45363;-82
2022/11/20 02:17:48;;;;;;;;;3.00;1.25;;;;;9.87;100.00;101161.25;5096686;27;60061;-81
2022/11/20 02:20:14;;;;;;;;;4.50;1.25;;;;;9.88;100.00;101154.25;5093994;27;45166;-80
2022/11/20 02:22:50;;;;;;;;;2.00;2.00;;;;;9.87;100.00;101156.00;5078243;27;58114;-83
2022/11/20 02:25:16;;;;;;;;;2.00;2.00;;;;;9.89;100.00;101151.63;5093529;27;45510;-81
2022/11/20 02:27:42;;;;;;;;;2.00;2.00;;;;;9.91;100.00;101160.47;5080441;27;45386;-81
2022/11/20 02:30:10;;;;;;;;;2.00;2.00;;;;;9.89;100.00;101159.53;5096189;27;45369;-80
2022/11/20 02:32:36;;;;;;;;;3.25;1.75;;;;;9.88;100.00;101155.13;5094969;27;45735;-84
2022/11/20 02:35:20;;;;;;;;;1.75;1.75;;;;;9.89;100.00;101145.47;5079286;27;45237;-80
2022/11/20 02:37:48;;;;;;;;;3.25;2.00;;;;;9.88;100.00;101146.31;5095732;27;45356;-84
2022/11/20 02:40:14;;;;;;;;;8.00;2.75;;;;;9.87;100.00;101141.91;5091772;27;45511;-80
2022/11/20 02:42:39;;;;;;;;;6.00;1.75;;;;;9.82;100.00;101133.03;5075196;27;55424;-80
2022/11/20 02:45:06;;;;;;;;;3.00;2.00;;;;;9.81;100.00;101132.16;5076561;28;45405;-83
2022/11/20 02:47:31;;;;;;;;;2.50;2.25;;;;;9.78;100.00;101132.06;5093095;27;45556;-80
2022/11/20 02:49:57;;;;;;;;;2.00;2.00;;;;;9.75;100.00;101120.56;5092960;27;45486;-82
2022/11/20 02:52:23;;;;;;;;;2.75;2.75;;;;;9.70;100.00;101117.88;5093180;27;46120;-82
2022/11/20 02:54:48;;;;;;;;;4.50;1.50;;;;;9.66;100.00;101102.84;5068746;28;45535;-80
2022/11/20 02:57:13;;;;;;;;;7.00;3.00;;;;;9.63;100.00;101106.28;5091137;27;59191;-82
2022/11/20 02:59:39;;;;;;;;;4.00;3.00;;;;;9.56;100.00;101098.25;5095725;27;53500;-79
2022/11/20 03:02:04;;;;;;;;;2.75;2.75;;;;;9.55;100.00;101097.38;5097089;27;66227;-81
2022/11/20 03:04:30;;;;;;;;;1.75;1.75;;;;;9.51;100.00;101097.28;5089490;27;45467;-80
2022/11/20 03:06:55;;;;;;;;;1.25;1.25;;;;;9.49;100.00;101094.63;5080127;27;45407;-80
2022/11/20 03:09:21;;;;;;;;;2.00;2.00;;;;;9.45;100.00;101088.38;5091606;27;61317;-81
2022/11/20 03:11:46;;;;;;;;;1.75;1.75;;;;;9.43;100.00;101083.97;5087657;27;45890;-83
2022/11/20 03:14:12;;;;;;;;;2.25;1.00;;;;;9.40;100.00;101082.13;5089743;27;45383;-81
2022/11/20 03:16:37;;;;;;;;;1.50;1.50;;;;;9.39;100.00;101087.38;5093096;27;45592;-79
2022/11/20 03:19:02;;;;;;;;;1.25;1.25;;;;;9.37;100.00;101075.91;5092437;27;63467;-80
2022/11/20 03:21:28;;;;;;;;;1.00;1.00;;;;;9.37;100.00;101081.16;5088971;27;51083;-85
2022/11/20 03:23:54;;;;;;;;;0.00;0.00;;;;;9.39;100.00;101076.84;5076643;27;45472;-81
2022/11/20 03:26:21;;;;;;;;;1.00;1.00;;;;;9.40;100.00;101071.59;5072377;28;45539;-80
2022/11/20 03:28:49;;;;;;;;;1.50;1.00;;;;;9.42;100.00;101068.97;5075364;27;45407;-81
2022/11/20 03:31:15;;;;;;;;;1.50;1.50;;;;;9.40;100.00;101068.97;5079169;27;47417;-81
2022/11/20 03:33:41;;;;;;;;;2.75;2.00;;;;;9.41;100.00;101069.84;5095932;27;45374;-80
2022/11/20 03:36:10;;;;;;;;;1.25;1.25;;;;;9.38;100.00;101069.81;5092972;27;45255;-80
2022/11/20 03:38:36;;;;;;;;;1.25;1.25;;;;;9.36;100.00;101064.47;5085693;27;45552;-81
2022/11/20 03:41:06;;;;;;;;;1.00;1.00;;;;;9.32;100.00;101067.03;5097062;27;47783;-80
2022/11/20 03:43:32;;;;;;;;;6.50;2.00;;;;;9.31;100.00;101057.34;5096188;27;45428;-83
2022/11/20 03:45:57;;;;;;;;;2.50;0.75;;;;;9.28;100.00;101058.19;5090583;27;60510;-80
2022/11/20 03:48:23;;;;;;;;;3.00;0.50;;;;;9.31;100.00;101060.88;5079409;27;46228;-81
2022/11/20 03:50:48;;;;;;;;;2.00;1.00;;;;;9.35;100.00;101052.16;5078927;27;46912;-80
2022/11/20 03:53:15;;;;;;;;;3.00;1.00;;;;;9.43;100.00;101053.22;5091675;27;56924;-80
2022/11/20 03:55:40;;;;;;;;;1.00;1.00;;;;;9.48;100.00;101049.75;5091604;27;45509;-83
2022/11/20 03:58:05;;;;;;;;;2.67;1.00;;;;;9.53;100.00;101056.00;5074215;27;57389;-82
2022/11/20 04:00:31;;;;;;;;;0.00;0.00;;;;;9.56;100.00;101053.44;5077999;27;69048;-80
2022/11/20 04:03:00;;;;;;;;;1.50;1.00;;;;;9.60;100.00;101048.25;5078036;27;62214;-81
2022/11/20 04:05:25;;;;;;;;;2.25;1.25;;;;;9.64;100.00;101049.19;5096291;27;45330;-80
2022/11/20 04:07:50;;;;;;;;;1.00;1.00;;;;;9.67;100.00;101054.53;5097098;27;45332;-83
2022/11/20 04:10:16;;;;;;;;;3.00;1.50;;;;;9.70;100.00;101044.03;5090260;27;68556;-80
2022/11/20 04:12:41;;;;;;;;;2.00;1.00;;;;;9.76;100.00;101048.53;5069583;28;66268;-81
2022/11/20 04:15:07;;;;;;;;;1.00;1.00;;;;;9.77;100.00;101045.03;5089279;27;64430;-81
2022/11/20 04:17:32;;;;;;;;;3.25;1.00;;;;;9.79;100.00;101045.94;5094151;27;45620;-80
2022/11/20 04:20:01;;;;;;;;;1.50;1.00;;;;;9.83;100.00;101050.41;5076279;27;59492;-80
2022/11/20 04:22:26;;;;;;;;;2.00;2.00;;;;;9.83;100.00;101042.50;5095249;27;45494;-81
2022/11/20 04:24:51;;;;;;;;;3.00;2.00;;;;;9.84;100.00;101044.28;5078959;27;45505;-80
2022/11/20 04:27:17;;;;;;;;;1.50;1.50;;;;;9.85;100.00;101046.03;5087614;27;59988;-82
2022/11/20 04:29:42;;;;;;;;;6.50;2.25;;;;;9.85;100.00;101046.03;5095204;27;46702;-81
2022/11/20 04:32:08;;;;;;;;;1.00;1.00;;;;;9.82;100.00;101044.25;5090390;27;61245;-84
2022/11/20 04:34:33;;;;;;;;;3.00;1.00;;;;;9.83;100.00;101034.59;5088362;27;54175;-80
2022/11/20 04:36:59;;;;;;;;;6.25;1.50;;;;;9.84;100.00;101042.50;5093080;27;45769;-85
2022/11/20 04:39:24;;;;;;;;;3.25;1.50;;;;;9.82;100.00;101046.88;5084928;27;47327;-81
2022/11/20 04:42:28;;;;;;;;;1.75;1.00;;;;;9.84;100.00;101041.63;5092040;27;62161;-81
2022/11/20 04:44:35;;;;;;;;;1.75;1.75;;;;;9.87;100.00;101039.06;5087223;27;45402;-84
2022/11/20 04:47:00;;;;;;;;;1.00;1.00;;;;;9.86;100.00;101030.25;5093938;27;59536;-82
2022/11/20 04:49:25;;;;;;;;;1.00;1.00;;;;;9.86;100.00;101034.66;5088811;27;69283;-82
2022/11/20 04:51:53;;;;;;;;;2.00;0.75;;;;;9.86;100.00;101037.28;5093618;27;64671;-80
2022/11/20 04:54:20;;;;;;;;;3.50;2.25;;;;;9.86;100.00;101034.66;5077525;27;45231;-80
2022/11/20 04:56:47;;;;;;;;;1.67;1.33;;;;;9.86;100.00;101039.94;5078665;27;45595;-83
2022/11/20 04:59:12;;;;;;;;;1.00;1.00;;;;;9.85;100.00;101022.31;5075770;27;46701;-81
2022/11/20 05:01:38;;;;;;;;;1.00;1.00;;;;;9.86;100.00;101017.06;5072546;27;45514;-80
2022/11/20 05:04:03;;;;;;;;;1.00;1.00;;;;;9.86;100.00;101019.72;5091474;27;54489;-80
2022/11/20 05:06:28;;;;;;;;;2.33;1.00;;;;;9.89;100.00;101019.75;5060434;27;45300;-81
2022/11/20 05:08:54;;;;;;;;;1.00;1.00;;;;;9.89;100.00;101009.19;5092611;27;63609;-80
2022/11/20 05:11:21;;;;;;;;;1.00;0.00;;;;;9.93;100.00;101018.94;5088768;27;68726;-80
2022/11/20 05:13:46;;;;;;;;;2.00;1.00;;;;;9.98;100.00;101012.00;5093423;27;45526;-81
2022/11/20 05:16:14;;;;;;;;;0.00;0.00;;;;;10.00;100.00;101012.00;5091263;27;46551;-84
2022/11/20 05:18:39;;;;;;;;;4.00;2.00;;;;;10.03;100.00;101006.78;5090440;27;46923;-80
2022/11/20 05:21:05;;;;;;;;;1.00;1.00;;;;;10.06;100.00;101009.47;5077863;27;46597;-83
2022/11/20 05:23:32;;;;;;;;;2.33;0.33;;;;;10.06;100.00;101005.94;5077524;27;45240;-80
2022/11/20 05:25:58;;;;;;;;;2.00;0.00;;;;;10.06;100.00;101005.94;5087687;27;45350;-80
2022/11/20 05:28:23;;;;;;;;;1.67;0.67;;;;;10.05;100.00;101007.69;5076199;27;46817;-81
2022/11/20 05:30:49;;;;;;;;;1.00;1.00;;;;;10.06;100.00;101004.19;5073834;28;45936;-80
2022/11/20 05:33:15;;;;;;;;;0.67;0.67;;;;;10.07;100.00;101011.25;5072334;27;45411;-80
2022/11/20 05:35:40;;;;;;;;;0.67;0.00;;;;;10.06;100.00;101006.81;5076439;27;45665;-81
2022/11/20 05:38:05;;;;;;;;;2.00;1.00;;;;;10.06;100.00;101000.66;5087848;27;69401;-80
2022/11/20 05:40:31;;;;;;;;;1.00;1.00;;;;;10.06;100.00;101001.56;5073101;28;63131;-80
2022/11/20 05:42:56;;;;;;;;;0.33;0.33;;;;;10.05;100.00;100999.78;5086596;27;61951;-80
2022/11/20 05:45:21;;;;;;;;;1.67;1.00;;;;;10.04;100.00;100995.38;5090584;27;61979;-83
2022/11/20 05:47:47;;;;;;;;;1.67;1.00;;;;;10.01;100.00;100992.66;5088208;27;68753;-83
2022/11/20 05:50:13;;;;;;;;;0.67;0.67;;;;;10.01;100.00;100997.94;5076701;27;56328;-80
2022/11/20 05:52:38;;;;;;;;;1.00;1.00;;;;;10.01;100.00;101000.59;5088663;27;45816;-80
2022/11/20 05:55:04;;;;;;;;;2.67;0.67;;;;;9.98;100.00;100990.88;5096834;27;55416;-80
2022/11/20 05:57:30;;;;;;;;;1.00;1.00;;;;;9.98;100.00;100985.63;5093991;27;47321;-80
2022/11/20 05:59:55;;;;;;;;;0.00;0.00;;;;;10.00;100.00;100990.03;5097593;27;66044;-84
2022/11/20 06:02:21;;;;;;;;;1.67;1.67;;;;;10.03;100.00;100984.81;5091775;27;55957;-83
2022/11/20 06:04:46;;;;;;;;;2.67;1.00;;;;;10.07;100.00;100982.25;5093178;27;48383;-81
2022/11/20 06:07:12;;;;;;;;;1.00;1.00;;;;;10.07;100.00;100976.09;5080257;27;47653;-84
2022/11/20 06:09:37;;;;;;;;;1.00;1.00;;;;;10.12;100.00;100979.66;5093703;27;45541;-82
2022/11/20 06:12:03;;;;;;;;;3.33;2.00;;;;;10.12;100.00;100980.56;5095765;27;45314;-80
2022/11/20 06:14:28;;;;;;;;;1.67;0.00;;;;;10.16;100.00;100981.47;5097958;27;45621;-81
2022/11/20 06:16:53;;;;;;;;;1.00;1.00;;;;;10.14;100.00;100968.28;5077114;27;47512;-80
2022/11/20 06:19:19;;;;;;;;;1.00;1.00;;;;;10.17;100.00;100975.31;5079870;27;62707;-80
2022/11/20 06:21:44;;;;;;;;;1.00;1.00;;;;;10.19;100.00;100976.25;5094075;27;45837;-81
2022/11/20 06:24:10;;;;;;;;;2.00;1.00;;;;;10.20;100.00;100968.34;5081129;27;45467;-80
2022/11/20 06:26:36;;;;;;;;;2.00;2.00;;;;;10.18;100.00;100970.09;5078985;27;45963;-79
2022/11/20 06:29:01;;;;;;;;;3.67;1.00;;;;;10.14;100.00;100967.38;5096100;27;61967;-79
2022/11/20 06:31:26;;;;;;;;;1.00;1.00;;;;;10.12;100.00;100966.47;5076279;28;59142;-79
2022/11/20 06:33:52;;;;;;;;;1.00;1.00;;;;;10.11;100.00;100975.25;5068888;27;45490;-79
2022/11/20 06:36:20;;;;;;;;;4.33;1.00;;;;;10.08;100.00;100970.81;5077452;27;46647;-80
2022/11/20 06:38:47;;;;;;;;;1.00;0.00;;;;;10.08;100.00;100975.22;5068430;27;45381;-82
2022/11/20 06:41:14;;;;;;;;;4.00;1.00;;;;;10.06;100.00;100975.16;5073863;27;45303;-80
2022/11/20 06:43:40;;;;;;;;;1.00;1.00;;;;;10.08;100.00;100968.19;5075451;27;45344;-83
2022/11/20 06:46:05;;;;;;;;;1.00;1.00;;;;;10.10;100.00;100976.13;5077303;27;45350;-80
2022/11/20 06:48:31;;;;;;;;;3.67;2.00;;;;;10.11;100.00;100967.31;5072194;27;61000;-79
2022/11/20 06:50:57;;;;;;;;;1.00;1.00;;;;;10.12;100.00;100966.47;5075140;28;45466;-80
2022/11/20 06:53:23;;;;;;;;;0.67;0.67;;;;;10.14;100.00;100963.00;5074659;28;45508;-82
2022/11/20 06:55:51;;;;;;;;;0.00;0.00;;;;;10.16;100.00;100973.56;5075305;27;45805;-85
2022/11/20 06:58:17;;;;;;;;;1.00;1.00;;;;;10.24;100.00;100977.25;5077603;27;45322;-80
2022/11/20 07:00:42;;;;;;;;;1.67;1.33;;;;;10.25;100.00;100972.84;5074128;27;45587;-81
2022/11/20 07:03:09;;;;;;;;;1.00;1.00;;;;;10.30;100.00;100984.38;5069610;28;45346;-79
2022/11/20 07:05:35;;;;;;;;;1.33;0.00;;;;;10.32;100.00;100985.25;5073771;28;46126;-80
2022/11/20 07:08:01;;;;;;;;;1.00;1.00;;;;;10.29;100.00;100979.97;5064647;28;45686;-80
2022/11/20 07:10:26;;;;;;;;;1.67;1.67;;;;;10.30;100.00;100979.09;5076998;27;45441;-80
2022/11/20 07:12:52;;;;;;;;;3.33;1.00;;;;;10.31;100.00;100984.38;5072022;27;45359;-83
2022/11/20 07:15:19;;;;;;;;;1.33;1.33;;;;;10.34;100.00;100975.63;5072506;28;46131;-80
2022/11/20 07:17:44;;;;;;;;;2.67;2.00;;;;;10.35;100.00;100969.50;5074685;27;45427;-81
2022/11/20 07:20:10;;;;;;;;;2.33;1.00;;;;;10.35;100.00;100991.47;5071094;27;63485;-80
2022/11/20 07:22:35;;;;;;;;;1.00;1.00;;;;;10.35;100.00;100980.94;5076491;28;45387;-80
2022/11/20 07:25:01;;;;;;;;;0.67;0.67;;;;;10.35;100.00;100982.69;5073721;27;66937;-85
2022/11/20 07:27:27;;;;;;;;;1.00;0.00;;;;;10.31;100.00;100979.09;5068056;28;47208;-83
2022/11/20 07:29:53;;;;;;;;;1.00;0.67;;;;;10.32;100.00;100986.16;5074718;27;45355;-84
2022/11/20 07:32:18;;;;;;;;;0.33;0.33;;;;;10.32;100.00;100977.34;5079455;27;45553;-83
2022/11/20 07:34:43;;;;;;;;;2.00;0.00;;;;;10.34;100.00;100991.47;5095114;27;47492;-81
2022/11/20 07:37:09;;;;;;;;;1.00;1.00;;;;;10.37;100.00;100992.38;5090667;27;49298;-80
2022/11/20 07:39:34;;;;;;;;;2.00;1.00;;;;;10.39;100.00;100995.94;5095167;27;45354;-82
2022/11/20 07:41:59;;;;;;;;;3.00;1.33;;;;;10.43;100.00;100991.59;5090618;27;45287;-83
2022/11/20 07:44:25;;;;;;;;;2.00;0.67;;;;;10.43;100.00;100992.47;5093072;27;64815;-80
2022/11/20 07:46:50;;;;;;;;;0.67;0.00;;;;;10.45;100.00;100989.88;5077046;27;45911;-80
2022/11/20 07:49:15;;;;;;;;;2.00;1.00;;;;;10.46;100.00;100991.63;5095614;27;57395;-81
2022/11/20 07:51:41;;;;;;;;;4.67;1.33;;;;;10.50;100.00;101001.38;5078071;27;59396;-80
2022/11/20 07:54:06;;;;;;;;;0.00;0.00;;;;;10.51;100.00;100995.22;5094524;27;67751;-80
2022/11/20 07:56:31;;;;;;;;;1.00;1.00;;;;;10.54;100.00;100994.38;5093588;27;45375;-80
2022/11/20 07:58:57;;;;;;;;;1.00;1.00;;;;;10.61;100.00;100985.69;5088380;27;56312;-80
2022/11/20 08:01:22;;;;;;;;;1.00;1.00;;;;;10.65;100.00;100985.75;5089690;27;45360;-84
2022/11/20 08:03:47;;;;;;;;;1.00;1.00;;;;;10.68;100.00;100984.88;5089437;27;68770;-81
2022/11/20 08:06:14;;;;;;;;;1.00;1.00;;;;;10.72;100.00;100971.75;5089059;27;67282;-81
2022/11/20 08:08:40;;;;;;;;;1.00;1.00;;;;;10.80;100.00;100990.31;5093196;27;45403;-80
2022/11/20 08:16:35;;;;;;;;;2.00;1.00;;;;;10.92;100.00;100979.94;5087667;27;46015;-80
2022/11/20 08:19:00;;;;;;;;;1.00;1.00;;;;;10.95;100.00;100972.00;5094359;27;55971;-82
2022/11/20 08:21:26;;;;;;;;;1.00;1.00;;;;;10.97;100.00;100977.31;5074741;27;45551;-82
2022/11/20 08:23:51;;;;;;;;;1.00;1.00;;;;;10.98;100.00;100964.13;5089094;27;45737;-81
2022/11/20 08:26:16;;;;;;;;;2.00;1.00;;;;;11.02;100.00;100954.47;5096665;27;45340;-81
2022/11/20 08:28:42;;;;;;;;;1.00;1.00;;;;;11.04;100.00;100955.41;5088051;27;63683;-80
2022/11/20 08:31:09;;;;;;;;;4.00;1.00;;;;;11.07;100.00;100951.88;5096138;27;45677;-82
2022/11/20 08:33:34;;;;;;;;;2.33;1.00;;;;;11.07;100.00;100941.31;5077771;27;46205;-80
2022/11/20 08:36:03;;;;;;;;;2.00;2.00;;;;;11.13;100.00;100942.28;5095927;27;67125;-81
2022/11/20 08:38:29;;;;;;;;;3.00;1.00;;;;;11.17;100.00;100938.78;5075960;27;45545;-83
2022/11/20 08:43:43;;;;;;;;;7.33;1.00;;;;;11.21;100.00;100935.31;5088538;27;45581;-82
2022/11/20 08:46:09;;;;;;;;;2.00;2.00;;;;;11.21;100.00;100945.88;5094237;27;45382;-81
2022/11/20 08:48:34;;;;;;;;;1.67;1.33;;;;;11.22;100.00;100942.34;5092726;27;54979;-77
2022/11/20 08:50:59;;;;;;;;;2.00;2.00;;;;;11.20;100.00;100941.47;5087517;27;46083;-79
2022/11/20 08:53:26;;;;;;;;;2.00;2.00;;;;;11.24;100.00;100937.09;5093088;27;47364;-78
2022/11/20 08:55:51;;;;;;;;;3.00;1.33;;;;;11.26;100.00;100938.88;5081656;27;45403;-77
2022/11/20 08:58:17;;;;;;;;;4.00;2.67;;;;;11.28;100.00;100936.25;5088146;27;55740;-83
2022/11/20 09:00:42;;;;;;;;;2.33;2.00;;;;;11.28;100.00;100929.19;5095061;27;45511;-77
2022/11/20 09:03:07;;;;;;;;;3.00;3.00;;;;;11.32;100.00;100926.59;5075744;27;68779;-76
2022/11/20 09:05:33;;;;;;;;;4.67;2.00;;;;;11.31;100.00;100915.13;5078989;27;64505;-79
2022/11/20 09:07:58;;;;;;;;;7.00;2.00;;;;;11.30;100.00;100915.13;5090011;27;54113;-77
2022/11/20 09:10:24;;;;;;;;;2.33;2.33;;;;;11.28;100.00;100913.34;5094283;27;45529;-82
2022/11/20 09:12:51;;;;;;;;;3.00;3.00;;;;;11.30;100.00;100915.13;5074445;27;46507;-78
2022/11/20 09:15:17;;;;;;;;;3.33;3.33;;;;;11.28;100.00;100910.69;5071023;27;46219;-77
2022/11/20 09:17:42;;;;;;;;;3.00;3.00;;;;;11.27;100.00;100921.25;5092567;27;45540;-77
2022/11/20 09:20:08;;;;;;;;;2.00;2.00;;;;;11.28;100.00;100909.81;5091311;27;48473;-80
2022/11/20 09:22:33;;;;;;;;;5.67;3.00;;;;;11.28;100.00;100913.34;5086033;27;47893;-81
2022/11/20 09:24:59;;;;;;;;;3.00;3.00;;;;;11.28;100.00;100909.81;5085858;27;64866;-77
2022/11/20 09:27:24;;;;;;;;;3.00;3.00;;;;;11.28;100.00;100901.88;5084188;27;54178;-78
2022/11/20 09:29:49;;;;;;;;;5.00;3.67;;;;;11.29;100.00;100903.66;5089699;27;48617;-82
2022/11/20 09:32:15;;;;;;;;;4.33;3.00;;;;;11.29;100.00;100890.44;5090020;27;47343;-77
2022/11/20 09:34:40;;;;;;;;;4.00;4.00;;;;;11.29;100.00;100895.72;5090121;27;45501;-81
2022/11/20 09:37:05;;;;;;;;;8.50;5.00;;;;;11.29;100.00;100890.44;5081647;27;57916;-80
2022/11/20 09:39:31;;;;;;;;;4.00;4.00;;;;;11.31;100.00;100888.72;5084126;27;58213;-81
2022/11/20 09:42:10;;;;;;;;;4.33;3.00;;;;;11.32;100.00;100887.81;5084315;27;65217;-80
2022/11/20 09:44:41;;;;;;;;;4.00;4.00;;;;;11.32;100.00;100881.66;5056743;28;45581;-80
2022/11/20 09:47:46;;;;;;;;;6.75;4.00;;;;;11.31;100.00;100886.06;5074580;27;45479;-80
2022/11/20 09:50:34;;;;;;;;;5.67;4.00;;;;;11.30;100.00;100881.66;5068577;27;45515;-80
2022/11/20 09:53:18;;;;;;;;;4.00;4.00;;;;;11.30;100.00;100886.06;5086022;27;46540;-78
2022/11/20 09:55:45;;;;;;;;;5.00;4.00;;;;;11.24;100.00;100884.25;5090088;27;45555;-79
2022/11/20 09:58:21;;;;;;;;;4.00;4.00;;;;;11.24;100.00;100881.59;5079135;27;45503;-78
2022/11/20 10:00:47;;;;;;;;;5.00;4.00;;;;;11.22;100.00;100872.75;5098150;27;46089;-78
2022/11/20 10:03:30;;;;;;;;;6.00;3.67;;;;;11.18;100.00;100879.75;5091711;27;66792;-77
2022/11/20 10:05:56;;;;;;;;;4.50;4.50;;;;;11.16;100.00;100873.59;5078226;27;45391;-82
2022/11/20 10:08:29;;;;;;;;;4.67;3.33;;;;;11.16;100.00;100870.94;5073985;27;45334;-76
2022/11/20 10:11:08;;;;;;;;;10.00;5.67;;;;;11.17;100.00;100869.19;5080579;27;45574;-79
2022/11/20 10:13:39;;;;;;;;;9.33;5.00;;;;;11.18;100.00;100866.53;5076654;27;45713;-80
2022/11/20 10:16:20;;;;;;;;;6.33;3.00;;;;;11.21;100.00;100866.59;5094475;27;45356;-80
2022/11/20 10:18:54;;;;;;;;;4.00;4.00;;;;;11.26;100.00;100858.72;5080595;27;45391;-75
2022/11/20 10:21:41;;;;;;;;;3.33;3.33;;;;;11.30;100.00;100847.28;5094037;27;45350;-76
2022/11/20 10:24:34;;;;;;;;;9.00;4.00;;;;;11.35;100.00;100837.63;5077982;27;46607;-77
2022/11/20 10:27:22;;;;;;;;;3.67;3.67;;;;;11.42;100.00;100844.72;5076047;27;45597;-78
2022/11/20 10:29:57;;;;;;;;;8.00;4.67;;;;;11.46;100.00;100841.25;5055427;27;45551;-77
2022/11/20 10:32:30;;;;;;;;;7.00;4.00;;;;;11.49;100.00;100856.22;5081328;27;45259;-77
2022/11/20 10:35:21;;;;;;;;;3.67;3.00;;;;;11.52;100.00;100833.34;5075892;27;48353;-81
2022/11/20 10:37:50;;;;;;;;;8.00;4.00;;;;;11.57;100.00;100824.56;5076252;27;45462;-76
2022/11/20 10:40:23;;;;;;;;;2.00;0.00;;;;;11.62;100.00;100833.44;5079394;27;45508;-78
2022/11/20 10:42:59;;;;;;;;;3.00;3.00;;;;;11.66;100.00;100827.25;5076146;27;45671;-81
2022/11/20 10:45:24;;;;;;;;;4.00;2.33;;;;;11.72;100.00;100827.31;5095053;27;46523;-80
2022/11/20 10:47:56;;;;;;;;;4.00;2.00;;;;;11.72;100.00;100814.97;5094859;27;45578;-79
2022/11/20 10:50:22;;;;;;;;;2.67;2.67;;;;;11.74;100.00;100815.88;5078542;27;45460;-81
2022/11/20 10:53:19;;;;;;;;;4.33;4.00;;;;;11.79;100.00;100810.59;5097695;27;45556;-78
2022/11/20 10:55:58;;;;;;;;;3.00;3.00;;;;;11.75;100.00;100807.03;5078875;27;46994;-78
2022/11/20 10:58:34;;;;;;;;;8.33;3.00;;;;;11.77;100.00;100818.53;5097972;27;45180;-78
2022/11/20 11:01:13;;;;;;;;;3.67;3.67;;;;;11.75;100.00;100814.09;5078416;27;45560;-82
2022/11/20 11:03:38;;;;;;;;;2.00;2.00;;;;;11.75;100.00;100808.81;5053442;27;45516;-79
2022/11/20 11:06:14;;;;;;;;;2.67;2.00;;;;;11.76;100.00;100807.94;5078244;27;66133;-81
2022/11/20 11:08:40;;;;;;;;;2.33;2.00;;;;;11.76;100.00;100802.63;5074543;27;45414;-80
2022/11/20 11:11:24;;;;;;;;;2.00;2.00;;;;;11.74;100.00;100794.69;5076358;27;45387;-79
2022/11/20 11:13:50;;;;;;;;;3.67;2.00;;;;;11.74;100.00;100804.41;5090677;27;45567;-83
2022/11/20 11:16:26;;;;;;;;;1.00;1.00;;;;;11.70;100.00;100776.16;5079024;27;47286;-80
2022/11/20 11:19:12;;;;;;;;;2.00;2.00;;;;;11.71;100.00;100780.56;5092970;27;46542;-79
2022/11/20 11:21:43;;;;;;;;;2.67;2.67;;;;;11.70;100.00;100766.47;5096136;27;45777;-83
2022/11/20 11:24:21;;;;;;;;;1.00;1.00;;;;;11.68;100.00;100786.75;5096005;27;45367;-81
2022/11/20 11:27:06;;;;;;;;;2.67;1.00;;;;;11.63;100.00;100780.53;5073652;27;45772;-80
2022/11/20 11:29:33;;;;;;;;;1.67;1.00;;;;;11.64;100.00;100797.28;5086464;27;45459;-78
2022/11/20 11:32:05;;;;;;;;;3.00;3.00;;;;;11.63;100.00;100793.75;5069314;28;45505;-81
2022/11/20 11:34:31;;;;;;;;;2.67;1.67;;;;;11.61;100.00;100782.31;5090517;27;45508;-79
2022/11/20 11:36:58;;;;;;;;;3.00;2.00;;;;;11.61;100.00;100776.09;5089783;27;46544;-78
2022/11/20 11:39:25;;;;;;;;;1.33;1.33;;;;;11.63;100.00;100772.59;5095286;27;45471;-78